SKW2256 KSAN-KSAT
Flight info
| Callsign | SKW2256 |
|---|---|
| Flight time | N/A |
| Altitude | 35000 |
| Route | ZZOOO4 GBN SKTTR/N0447F370 Q4 ELP J86 FST J138 SHUCK MOPPP DNKIN2 |
| Aircraft | CRJ9/M-SDFGIRWY/S |
Departure
| Time | 2026-05-07 02:03 |
|---|---|
| Airport | San Diego International Airport (KSAN) |
Arrival
| Time | N/A |
|---|---|
| Airport | San Antonio International Airport (KSAT) |
| Time | Latitude | Longitude | Altitude | Speed | Heading |
|---|---|---|---|---|---|
| 2026-05-07 01:45 | 32.73341 | -117.19915 | 18 ft | 0 kts | 117° |
| 2026-05-07 01:54 | 32.73344 | -117.19922 | 19 ft | 2 kts | 115° |
| 2026-05-07 01:54 | 32.73351 | -117.19940 | 21 ft | 2 kts | 111° |
| 2026-05-07 01:55 | 32.73355 | -117.19958 | 22 ft | 2 kts | 97° |
| 2026-05-07 01:55 | 32.73352 | -117.19977 | 25 ft | 2 kts | 46° |
| 2026-05-07 01:55 | 32.73343 | -117.19983 | 21 ft | 0 kts | 14° |
| 2026-05-07 01:56 | 32.73344 | -117.19983 | 22 ft | 0 kts | 14° |
| 2026-05-07 01:57 | 32.73349 | -117.19982 | 21 ft | 2 kts | 14° |
| 2026-05-07 01:57 | 32.73377 | -117.19974 | 20 ft | 6 kts | 12° |
| 2026-05-07 01:57 | 32.73429 | -117.19960 | 21 ft | 8 kts | 13° |
| 2026-05-07 01:58 | 32.73473 | -117.19931 | 22 ft | 7 kts | 61° |
| 2026-05-07 01:58 | 32.73470 | -117.19859 | 24 ft | 11 kts | 105° |
| 2026-05-07 01:58 | 32.73446 | -117.19758 | 24 ft | 15 kts | 106° |
| 2026-05-07 01:58 | 32.73413 | -117.19624 | 22 ft | 19 kts | 106° |
| 2026-05-07 01:59 | 32.73376 | -117.19469 | 22 ft | 21 kts | 106° |
| 2026-05-07 01:59 | 32.73333 | -117.19292 | 18 ft | 23 kts | 106° |
| 2026-05-07 01:59 | 32.73288 | -117.19107 | 22 ft | 23 kts | 106° |
| 2026-05-07 01:59 | 32.73245 | -117.18929 | 23 ft | 22 kts | 107° |
| 2026-05-07 02:00 | 32.73203 | -117.18756 | 26 ft | 21 kts | 106° |
| 2026-05-07 02:00 | 32.73161 | -117.18583 | 21 ft | 23 kts | 105° |
| 2026-05-07 02:00 | 32.73116 | -117.18400 | 20 ft | 23 kts | 105° |
| 2026-05-07 02:00 | 32.73073 | -117.18219 | 18 ft | 24 kts | 106° |
| 2026-05-07 02:01 | 32.73024 | -117.18020 | 18 ft | 26 kts | 106° |
| 2026-05-07 02:01 | 32.72974 | -117.17811 | 15 ft | 27 kts | 106° |
| 2026-05-07 02:01 | 32.72957 | -117.17654 | 18 ft | 11 kts | 76° |
| 2026-05-07 02:01 | 32.72987 | -117.17587 | 22 ft | 8 kts | 27° |
| 2026-05-07 02:02 | 32.73030 | -117.17624 | 19 ft | 11 kts | 292° |
| 2026-05-07 02:02 | 32.73061 | -117.17746 | 19 ft | 32 kts | 286° |
| 2026-05-07 02:02 | 32.73192 | -117.18282 | 22 ft | 101 kts | 286° |
| 2026-05-07 02:02 | 32.73442 | -117.19314 | 23 ft | 155 kts | 286° |
| 2026-05-07 02:03 | 32.73718 | -117.20594 | 626 ft | 159 kts | 285° |
| 2026-05-07 02:03 | 32.73966 | -117.21859 | 1335 ft | 161 kts | 285° |
| 2026-05-07 02:03 | 32.74244 | -117.23211 | 1813 ft | 178 kts | 289° |
| 2026-05-07 02:03 | 32.74638 | -117.24648 | 2229 ft | 200 kts | 290° |
| 2026-05-07 02:04 | 32.75091 | -117.26237 | 2717 ft | 220 kts | 290° |
| 2026-05-07 02:04 | 32.75588 | -117.28035 | 3417 ft | 237 kts | 288° |
| 2026-05-07 02:04 | 32.76056 | -117.29956 | 4258 ft | 244 kts | 286° |
| 2026-05-07 02:04 | 32.76484 | -117.31922 | 5202 ft | 249 kts | 278° |
| 2026-05-07 02:05 | 32.76192 | -117.33933 | 5999 ft | 260 kts | 242° |
| 2026-05-07 02:05 | 32.74904 | -117.35429 | 6844 ft | 265 kts | 206° |
| 2026-05-07 02:05 | 32.73098 | -117.35846 | 7559 ft | 269 kts | 170° |
| 2026-05-07 02:05 | 32.71395 | -117.35025 | 8336 ft | 266 kts | 135° |
| 2026-05-07 02:06 | 32.70384 | -117.33259 | 9113 ft | 258 kts | 101° |
| 2026-05-07 02:06 | 32.69967 | -117.31185 | 9949 ft | 259 kts | 99° |
| 2026-05-07 02:06 | 32.69335 | -117.29160 | 10640 ft | 270 kts | 122° |
| 2026-05-07 02:06 | 32.67846 | -117.27743 | 11341 ft | 283 kts | 150° |
| 2026-05-07 02:07 | 32.66037 | -117.26778 | 12071 ft | 287 kts | 152° |
| 2026-05-07 02:07 | 32.62351 | -117.24937 | 13454 ft | 290 kts | 143° |
| 2026-05-07 02:07 | 32.61041 | -117.23338 | 13994 ft | 282 kts | 111° |
| 2026-05-07 02:08 | 32.60454 | -117.21147 | 14566 ft | 281 kts | 98° |
| 2026-05-07 02:08 | 32.60041 | -117.18786 | 14685 ft | 302 kts | 94° |
| 2026-05-07 02:08 | 32.60125 | -117.16266 | 14918 ft | 313 kts | 76° |
| 2026-05-07 02:08 | 32.60604 | -117.13690 | 15211 ft | 326 kts | 71° |
| 2026-05-07 02:09 | 32.61345 | -117.11109 | 15678 ft | 332 kts | 67° |
| 2026-05-07 02:09 | 32.62185 | -117.08584 | 16272 ft | 335 kts | 65° |
| 2026-05-07 02:09 | 32.63086 | -117.06026 | 16864 ft | 338 kts | 65° |
| 2026-05-07 02:09 | 32.64019 | -117.03453 | 17431 ft | 341 kts | 64° |
| 2026-05-07 02:10 | 32.64975 | -117.00855 | 18001 ft | 344 kts | 64° |
| 2026-05-07 02:10 | 32.65905 | -116.98221 | 18548 ft | 347 kts | 65° |
| 2026-05-07 02:10 | 32.66641 | -116.95480 | 19008 ft | 353 kts | 77° |
| 2026-05-07 02:10 | 32.66873 | -116.92553 | 19491 ft | 358 kts | 84° |
| 2026-05-07 02:11 | 32.66910 | -116.89633 | 19950 ft | 362 kts | 86° |
| 2026-05-07 02:11 | 32.66908 | -116.86777 | 20392 ft | 364 kts | 86° |
| 2026-05-07 02:11 | 32.66910 | -116.83860 | 20829 ft | 366 kts | 85° |
| 2026-05-07 02:11 | 32.66949 | -116.80831 | 21257 ft | 368 kts | 84° |
| 2026-05-07 02:12 | 32.67016 | -116.77784 | 21698 ft | 370 kts | 84° |
| 2026-05-07 02:12 | 32.67075 | -116.74717 | 22120 ft | 373 kts | 84° |
| 2026-05-07 02:12 | 32.67098 | -116.71628 | 22537 ft | 376 kts | 86° |
| 2026-05-07 02:12 | 32.67056 | -116.68510 | 22949 ft | 378 kts | 86° |
| 2026-05-07 02:13 | 32.66998 | -116.65373 | 23361 ft | 380 kts | 86° |
| 2026-05-07 02:13 | 32.66949 | -116.62255 | 23720 ft | 382 kts | 86° |
| 2026-05-07 02:13 | 32.66899 | -116.59091 | 24061 ft | 384 kts | 86° |
| 2026-05-07 02:13 | 32.66845 | -116.55917 | 24439 ft | 385 kts | 86° |
| 2026-05-07 02:14 | 32.66796 | -116.52938 | 24755 ft | 385 kts | 87° |
| 2026-05-07 02:14 | 32.66722 | -116.49754 | 25073 ft | 386 kts | 87° |
| 2026-05-07 02:14 | 32.66649 | -116.46561 | 25375 ft | 387 kts | 86° |
| 2026-05-07 02:14 | 32.66589 | -116.43363 | 25693 ft | 388 kts | 85° |
| 2026-05-07 02:15 | 32.66683 | -116.40170 | 26016 ft | 385 kts | 81° |
| 2026-05-07 02:15 | 32.66967 | -116.37015 | 26287 ft | 385 kts | 78° |
| 2026-05-07 02:15 | 32.67322 | -116.33854 | 26557 ft | 386 kts | 78° |
| 2026-05-07 02:15 | 32.67670 | -116.30725 | 26810 ft | 388 kts | 79° |
| 2026-05-07 02:16 | 32.67976 | -116.27539 | 27078 ft | 389 kts | 79° |
| 2026-05-07 02:16 | 32.68265 | -116.24341 | 27481 ft | 387 kts | 80° |
| 2026-05-07 02:16 | 32.68548 | -116.21164 | 27787 ft | 387 kts | 79° |
| 2026-05-07 02:16 | 32.68819 | -116.18165 | 28035 ft | 388 kts | 79° |
| 2026-05-07 02:17 | 32.69104 | -116.14972 | 28250 ft | 390 kts | 80° |
| 2026-05-07 02:17 | 32.69391 | -116.11768 | 28512 ft | 390 kts | 80° |
| 2026-05-07 02:17 | 32.69675 | -116.08558 | 28763 ft | 391 kts | 80° |
| 2026-05-07 02:17 | 32.69963 | -116.05340 | 29000 ft | 392 kts | 80° |
| 2026-05-07 02:18 | 32.70254 | -116.02155 | 29228 ft | 393 kts | 80° |
| 2026-05-07 02:18 | 32.70548 | -115.98922 | 29424 ft | 394 kts | 79° |
| 2026-05-07 02:18 | 32.70848 | -115.95676 | 29610 ft | 395 kts | 79° |
| 2026-05-07 02:18 | 32.71146 | -115.92438 | 29932 ft | 393 kts | 80° |
| 2026-05-07 02:19 | 32.71433 | -115.89322 | 30053 ft | 394 kts | 79° |